Time;durP1;ratioP1;P1;durP2;ratioP2;P2;SDS_P1;SDS_P2;PMS_P1;PMS_P2;Temp;Humidity;BMP_temperature;BMP_pressure;BME280_temperature;BME280_humidity;BME280_pressure;Samples;Min_cycle;Max_cycle;Signal;HPM_P1;HPM_P2
2021/09/07 00:05:17;;;;;;;6.60;3.58;;;;;;;;;;21164894;28;20459;-51
2021/09/07 00:15:19;;;;;;;;;;;;;;;;;;21145258;28;20047;-51
2021/09/07 00:25:21;;;;;;;7.82;4.07;;;;;;;;;;21161846;28;20409;-50
2021/09/07 00:35:24;;;;;;;;;;;;;;;;;;21161976;28;20070;-50
2021/09/07 00:45:26;;;;;;;9.10;4.97;;;;;;;;;;21162214;28;19919;-57
2021/09/07 00:55:29;;;;;;;5.55;3.42;;;;;;;;;;21160405;28;20055;-49
2021/09/07 01:05:31;;;;;;;8.95;6.93;;;;;;;;;;21168871;28;20059;-46
2021/09/07 01:15:32;;;;;;;;;;;;;;;;;;21175474;28;20139;-48
2021/09/07 01:25:35;;;;;;;7.83;3.70;;;;;;;;;;21174595;28;20380;-49
2021/09/07 01:35:41;;;;;;;11.90;4.78;;;;;;;;;;21174191;28;20047;-48
2021/09/07 01:45:46;;;;;;;6.13;3.70;;;;;;;;;;21172799;28;20048;-50
2021/09/07 01:55:48;;;;;;;5.32;3.30;;;;;;;;;;21172137;28;20055;-49
2021/09/07 02:05:50;;;;;;;8.90;3.65;;;;;;;;;;21171364;28;20043;-48
2021/09/07 02:15:53;;;;;;;9.00;4.00;;;;;;;;;;21170971;28;20134;-56
2021/09/07 02:25:56;;;;;;;9.52;3.30;;;;;;;;;;21170320;28;20509;-57
2021/09/07 02:35:57;;;;;;;7.30;3.93;;;;;;;;;;21168540;28;20043;-59
2021/09/07 02:45:59;;;;;;;6.53;3.50;;;;;;;;;;21168044;28;20047;-57
2021/09/07 02:56:01;;;;;;;9.57;4.03;;;;;;;;;;21167618;28;20060;-46
2021/09/07 03:06:03;;;;;;;5.20;3.40;;;;;;;;;;21166742;28;20039;-49
2021/09/07 03:16:06;;;;;;;8.02;5.13;;;;;;;;;;21166773;28;20054;-49
2021/09/07 03:26:27;;;;;;;10.00;4.15;;;;;;;;;;21165294;28;20043;-48
2021/09/07 03:36:49;;;;;;;6.07;3.60;;;;;;;;;;21164628;28;20048;-46
2021/09/07 03:46:54;;;;;;;9.90;3.50;;;;;;;;;;21163524;28;20048;-48
2021/09/07 03:56:55;;;;;;;13.40;7.50;;;;;;;;;;21162740;28;20048;-48
2021/09/07 04:06:58;;;;;;;11.57;3.72;;;;;;;;;;21163493;28;20044;-50
2021/09/07 04:16:59;;;;;;;7.20;3.80;;;;;;;;;;21162024;28;20062;-47
2021/09/07 04:27:03;;;;;;;7.18;3.40;;;;;;;;;;21162190;28;20054;-48
2021/09/07 04:37:05;;;;;;;13.07;3.58;;;;;;;;;;21163685;28;20056;-52
2021/09/07 04:47:06;;;;;;;14.57;6.03;;;;;;;;;;21178129;28;20043;-47
2021/09/07 04:57:08;;;;;;;;;;;;;;;;;;21177635;28;20055;-59
2021/09/07 05:07:10;;;;;;;10.57;4.93;;;;;;;;;;21176125;28;19976;-60
2021/09/07 05:17:12;;;;;;;8.70;4.00;;;;;;;;;;21175094;28;20130;-56
2021/09/07 05:27:14;;;;;;;;;;;;;;;;;;21174627;28;20076;-59
2021/09/07 05:37:17;;;;;;;10.00;4.20;;;;;;;;;;21173445;28;20420;-60
2021/09/07 05:47:20;;;;;;;13.63;4.07;;;;;;;;;;21172422;28;20047;-59
2021/09/07 05:57:22;;;;;;;9.80;5.68;;;;;;;;;;21171876;28;20047;-49
2021/09/07 06:07:24;;;;;;;13.43;5.73;;;;;;;;;;21171284;28;20055;-50
2021/09/07 06:17:27;;;;;;;17.52;5.63;;;;;;;;;;21171167;28;20058;-55
2021/09/07 06:27:30;;;;;;;18.87;5.37;;;;;;;;;;21152717;28;20464;-54
2021/09/07 06:37:32;;;;;;;14.55;5.75;;;;;;;;;;21151375;28;20047;-61
2021/09/07 06:47:35;;;;;;;15.10;5.20;;;;;;;;;;21168223;28;20050;-59
2021/09/07 06:57:37;;;;;;;12.88;4.95;;;;;;;;;;21166947;28;20134;-61
2021/09/07 07:07:39;;;;;;;12.57;4.97;;;;;;;;;;21165038;28;20121;-58
2021/09/07 07:17:41;;;;;;;11.88;5.43;;;;;;;;;;21165384;28;20054;-62
2021/09/07 07:27:43;;;;;;;18.57;12.27;;;;;;;;;;21164591;28;20062;-48
2021/09/07 07:37:46;;;;;;;19.77;6.07;;;;;;;;;;21164290;28;20130;-49
2021/09/07 07:47:49;;;;;;;14.27;5.75;;;;;;;;;;21163395;28;20479;-49
2021/09/07 07:57:51;;;;;;;16.07;5.87;;;;;;;;;;21163192;28;20056;-60
2021/09/07 08:07:53;;;;;;;11.80;5.22;;;;;;;;;;21144371;28;20051;-56
2021/09/07 08:17:55;;;;;;;11.90;4.25;;;;;;;;;;21178078;28;20101;-48
2021/09/07 08:27:57;;;;;;;14.97;4.27;;;;;;;;;;21161517;28;20475;-48
2021/09/07 08:37:59;;;;;;;12.48;4.90;;;;;;;;;;21177695;28;20499;-50
2021/09/07 08:48:03;;;;;;;10.57;4.35;;;;;;;;;;21177466;28;20039;-48
2021/09/07 08:58:04;;;;;;;8.80;3.30;;;;;;;;;;21175784;28;20062;-48
2021/09/07 09:08:14;;;;;;;8.40;3.08;;;;;;;;;;21176198;28;20052;-50
2021/09/07 09:18:16;;;;;;;4.40;2.80;;;;;;;;;;21152811;28;20043;-56
2021/09/07 09:28:18;;;;;;;;;;;;;;;;;;21163807;28;20078;-50
2021/09/07 09:38:23;;;;;;;10.65;3.72;;;;;;;;;;21169269;28;20340;-56
2021/09/07 09:48:27;;;;;;;8.95;3.85;;;;;;;;;;21168392;28;20047;-58
2021/09/07 09:58:30;;;;;;;30.75;6.18;;;;;;;;;;21168112;28;20071;-59
2021/09/07 10:08:33;;;;;;;12.90;3.30;;;;;;;;;;21169476;28;20047;-66
2021/09/07 10:28:57;;;;;;;16.23;10.25;;;;;;;;;;21168573;28;20051;-60
2021/09/07 10:39:03;;;;;;;8.50;2.97;;;;;;;;;;21167650;28;20498;-63
2021/09/07 10:49:13;;;;;;;6.68;3.80;;;;;;;;;;21167889;28;20437;-51
2021/09/07 10:59:16;;;;;;;;;;;;;;;;;;21167147;28;20124;-51
2021/09/07 11:09:37;;;;;;;8.00;2.70;;;;;;;;;;21165824;28;20283;-51
2021/09/07 11:19:59;;;;;;;8.20;3.13;;;;;;;;;;21164773;28;20054;-51
2021/09/07 11:30:18;;;;;;;8.10;3.13;;;;;;;;;;21164290;28;20047;-51
2021/09/07 11:40:21;;;;;;;6.70;3.35;;;;;;;;;;21163284;28;20193;-51
2021/09/07 11:50:29;;;;;;;7.35;3.13;;;;;;;;;;21163058;28;20047;-52
2021/09/07 12:00:31;;;;;;;6.53;3.05;;;;;;;;;;21162573;28;20055;-51
2021/09/07 12:10:35;;;;;;;5.60;3.25;;;;;;;;;;21161849;28;20446;-54
2021/09/07 12:20:38;;;;;;;9.35;2.80;;;;;;;;;;21161343;28;20476;-52
2021/09/07 12:30:41;;;;;;;7.43;4.47;;;;;;;;;;21161942;28;20094;-52
2021/09/07 12:40:45;;;;;;;8.70;3.05;;;;;;;;;;21143270;28;20080;-51
2021/09/07 12:50:48;;;;;;;6.95;3.40;;;;;;;;;;21161170;28;20392;-51
2021/09/07 13:00:50;;;;;;;9.13;3.13;;;;;;;;;;21167875;28;20135;-50
2021/09/07 13:10:53;;;;;;;8.38;3.33;;;;;;;;;;21176113;28;20563;-53
2021/09/07 13:21:00;;;;;;;5.95;2.60;;;;;;;;;;21174507;28;20139;-52
2021/09/07 13:31:02;;;;;;;13.07;3.45;;;;;;;;;;21175667;28;20054;-51
2021/09/07 13:41:05;;;;;;;10.88;3.40;;;;;;;;;;21173228;28;20047;-52
2021/09/07 13:51:08;;;;;;;9.57;2.60;;;;;;;;;;21173866;28;20047;-52
2021/09/07 14:01:11;;;;;;;6.07;2.78;;;;;;;;;;21171466;28;20144;-50
2021/09/07 14:11:13;;;;;;;9.43;3.85;;;;;;;;;;21152314;28;20052;-50
2021/09/07 14:21:15;;;;;;;7.53;3.10;;;;;;;;;;21169825;28;20131;-53
2021/09/07 14:31:20;;;;;;;10.70;3.10;;;;;;;;;;21169694;28;20047;-51
2021/09/07 14:41:22;;;;;;;12.75;3.58;;;;;;;;;;21168714;28;20054;-52
2021/09/07 14:51:24;;;;;;;7.13;3.22;;;;;;;;;;21167687;28;20131;-51
2021/09/07 15:01:26;;;;;;;10.18;3.10;;;;;;;;;;21167140;28;20051;-53
2021/09/07 15:11:28;;;;;;;7.10;3.40;;;;;;;;;;21166001;28;20048;-52
2021/09/07 15:21:30;;;;;;;7.63;2.70;;;;;;;;;;21164783;28;20567;-50
2021/09/07 15:31:32;;;;;;;8.10;2.67;;;;;;;;;;21165992;28;20483;-61
2021/09/07 15:41:34;;;;;;;7.15;2.95;;;;;;;;;;21166752;28;20059;-60
2021/09/07 15:51:36;;;;;;;9.27;2.65;;;;;;;;;;21173414;28;20051;-51
2021/09/07 16:01:38;;;;;;;10.35;4.00;;;;;;;;;;21164626;28;20098;-68
2021/09/07 16:11:41;;;;;;;7.18;2.92;;;;;;;;;;21164075;28;20513;-54
2021/09/07 16:21:44;;;;;;;5.85;2.58;;;;;;;;;;21162814;28;20472;-58
2021/09/07 16:31:46;;;;;;;6.55;2.70;;;;;;;;;;21164776;28;20484;-66
2021/09/07 16:41:48;;;;;;;6.90;2.40;;;;;;;;;;21178161;28;20196;-52
2021/09/07 16:51:51;;;;;;;9.98;3.90;;;;;;;;;;21177273;28;20148;-60
2021/09/07 17:01:53;;;;;;;9.02;3.22;;;;;;;;;;21175169;28;20142;-59
2021/09/07 17:11:56;;;;;;;10.63;6.43;;;;;;;;;;21175713;28;20056;-55
2021/09/07 17:21:58;;;;;;;6.00;2.53;;;;;;;;;;21174364;28;20047;-52
2021/09/07 17:42:12;;;;;;;6.45;3.10;;;;;;;;;;21172555;28;20051;-51
2021/09/07 17:52:14;;;;;;;11.85;4.38;;;;;;;;;;21171810;28;20044;-51
2021/09/07 18:02:16;;;;;;;9.40;3.15;;;;;;;;;;21153207;28;20059;-52
2021/09/07 18:12:17;;;;;;;9.65;3.28;;;;;;;;;;21171089;28;20507;-51
2021/09/07 18:22:20;;;;;;;7.95;3.10;;;;;;;;;;21170461;28;20047;-50
2021/09/07 18:32:22;;;;;;;9.30;3.95;;;;;;;;;;21168603;28;20050;-51
2021/09/07 18:42:24;;;;;;;13.23;5.10;;;;;;;;;;21149593;28;20129;-51
2021/09/07 18:52:26;;;;;;;7.88;5.38;;;;;;;;;;21167112;28;20440;-52
2021/09/07 19:02:28;;;;;;;12.15;6.13;;;;;;;;;;21165824;28;20062;-51
2021/09/07 19:12:31;;;;;;;10.30;5.28;;;;;;;;;;21165421;28;20144;-51
2021/09/07 19:22:33;;;;;;;11.88;5.78;;;;;;;;;;21164373;28;20131;-56
2021/09/07 19:32:35;;;;;;;11.05;4.40;;;;;;;;;;21164523;28;20051;-53
2021/09/07 19:42:38;;;;;;;12.95;6.93;;;;;;;;;;21163177;28;20051;-59
2021/09/07 19:52:40;;;;;;;12.48;5.50;;;;;;;;;;21164485;28;20488;-57
2021/09/07 20:02:43;;;;;;;12.82;8.32;;;;;;;;;;21162369;28;20043;-52
2021/09/07 20:12:45;;;;;;;11.45;4.90;;;;;;;;;;21162185;28;20054;-53
2021/09/07 20:22:47;;;;;;;9.20;5.25;;;;;;;;;;21162822;28;20551;-58
2021/09/07 20:32:49;;;;;;;7.80;4.20;;;;;;;;;;21161893;28;20048;-57
2021/09/07 20:42:52;;;;;;;13.40;6.57;;;;;;;;;;21161488;28;20087;-51
2021/09/07 20:52:54;;;;;;;17.10;11.38;;;;;;;;;;21160427;28;20047;-56
2021/09/07 21:02:57;;;;;;;7.90;4.63;;;;;;;;;;21160772;28;20055;-59
2021/09/07 21:13:00;;;;;;;14.20;6.40;;;;;;;;;;21160305;28;20051;-56
2021/09/07 21:23:02;;;;;;;10.65;4.88;;;;;;;;;;21168603;28;20062;-52
2021/09/07 21:33:05;;;;;;;7.38;4.60;;;;;;;;;;21156740;28;20055;-51
2021/09/07 21:43:06;;;;;;;10.23;5.03;;;;;;;;;;21173306;28;20058;-51
2021/09/07 21:53:08;;;;;;;11.73;7.75;;;;;;;;;;21173070;28;20051;-51
2021/09/07 22:03:10;;;;;;;7.15;3.40;;;;;;;;;;21175562;28;20121;-64
2021/09/07 22:13:12;;;;;;;7.82;4.20;;;;;;;;;;21068740;28;20408;-50
2021/09/07 22:23:15;;;;;;;10.77;4.60;;;;;;;;;;21086134;28;20052;-57
2021/09/07 22:33:17;;;;;;;5.85;3.50;;;;;;;;;;21085410;28;20048;-52
2021/09/07 22:43:19;;;;;;;14.80;11.55;;;;;;;;;;21084729;28;20545;-52
2021/09/07 22:53:21;;;;;;;21.98;15.82;;;;;;;;;;21087725;28;20056;-51
2021/09/07 23:03:23;;;;;;;6.10;3.42;;;;;;;;;;21086441;28;20052;-56
2021/09/07 23:13:25;;;;;;;6.00;3.40;;;;;;;;;;21082614;28;20048;-52
2021/09/07 23:23:28;;;;;;;7.03;3.60;;;;;;;;;;21166122;28;20056;-58
2021/09/07 23:33:30;;;;;;;5.70;3.35;;;;;;;;;;21166280;28;20059;-52
2021/09/07 23:43:32;;;;;;;;;;;;;;;;;;21164479;28;20043;-51
2021/09/07 23:53:34;;;;;;;7.73;2.80;;;;;;;;;;21156117;28;20415;-53
